sensor_id;sensor_type;location;lat;lon;timestamp;pressure;altitude;pressure_sealevel;temperature;humidity
32243;BME280;18731;42.830;24.390;2024-03-22T00:00:55;94607.44;;;4.34;65.46
32243;BME280;18731;42.830;24.390;2024-03-22T00:03:20;94621.28;;;4.44;65.84
32243;BME280;18731;42.830;24.390;2024-03-22T00:05:46;94621.44;;;4.34;66.23
32243;BME280;18731;42.830;24.390;2024-03-22T00:08:11;94622.44;;;4.38;65.97
32243;BME280;18731;42.830;24.390;2024-03-22T00:10:37;94630.44;;;4.33;67.06
32243;BME280;18731;42.830;24.390;2024-03-22T00:13:03;94620.88;;;4.37;66.70
32243;BME280;18731;42.830;24.390;2024-03-22T00:15:28;94615.16;;;4.30;67.04
32243;BME280;18731;42.830;24.390;2024-03-22T00:17:54;94622.44;;;4.38;66.92
32243;BME280;18731;42.830;24.390;2024-03-22T00:20:19;94617.72;;;4.35;66.39
32243;BME280;18731;42.830;24.390;2024-03-22T00:22:45;94622.44;;;4.38;66.67
32243;BME280;18731;42.830;24.390;2024-03-22T00:25:10;94605.16;;;4.27;66.79
32243;BME280;18731;42.830;24.390;2024-03-22T00:27:36;94622.72;;;4.37;66.91
32243;BME280;18731;42.830;24.390;2024-03-22T00:30:01;94604.59;;;4.30;66.35
32243;BME280;18731;42.830;24.390;2024-03-22T00:32:27;94622.94;;;4.40;66.27
32243;BME280;18731;42.830;24.390;2024-03-22T00:34:52;94620.09;;;4.37;66.05
32243;BME280;18731;42.830;24.390;2024-03-22T00:37:18;94625.78;;;4.25;65.94
32243;BME280;18731;42.830;24.390;2024-03-22T00:39:44;94622.56;;;4.28;65.81
32243;BME280;18731;42.830;24.390;2024-03-22T00:42:09;94610.69;;;4.07;66.89
32243;BME280;18731;42.830;24.390;2024-03-22T00:44:35;94624.84;;;4.16;67.21
32243;BME280;18731;42.830;24.390;2024-03-22T00:47:01;94629.91;;;4.12;67.54
32243;BME280;18731;42.830;24.390;2024-03-22T00:49:28;94597.06;;;4.00;67.28
32243;BME280;18731;42.830;24.390;2024-03-22T00:51:54;94621.53;;;4.05;67.73
32243;BME280;18731;42.830;24.390;2024-03-22T00:54:21;94610.88;;;3.92;67.49
32243;BME280;18731;42.830;24.390;2024-03-22T00:56:47;94617.47;;;3.94;67.88
32243;BME280;18731;42.830;24.390;2024-03-22T00:59:13;94621.50;;;3.86;68.27
32243;BME280;18731;42.830;24.390;2024-03-22T01:01:38;94624.53;;;3.75;68.77
32243;BME280;18731;42.830;24.390;2024-03-22T01:04:04;94609.22;;;3.53;68.66
32243;BME280;18731;42.830;24.390;2024-03-22T01:06:29;94632.56;;;3.65;68.84
32243;BME280;18731;42.830;24.390;2024-03-22T01:08:55;94597.25;;;3.37;68.63
32243;BME280;18731;42.830;24.390;2024-03-22T01:11:20;94602.13;;;3.48;68.11
32243;BME280;18731;42.830;24.390;2024-03-22T01:13:46;94614.31;;;3.44;68.43
32243;BME280;18731;42.830;24.390;2024-03-22T01:16:12;94611.41;;;3.46;68.29
32243;BME280;18731;42.830;24.390;2024-03-22T01:18:37;94631.84;;;3.59;68.06
32243;BME280;18731;42.830;24.390;2024-03-22T01:21:03;94626.56;;;3.59;68.33
32243;BME280;18731;42.830;24.390;2024-03-22T01:23:31;94630.28;;;3.58;68.33
32243;BME280;18731;42.830;24.390;2024-03-22T01:25:57;94628.81;;;3.47;68.17
32243;BME280;18731;42.830;24.390;2024-03-22T01:28:22;94626.00;;;3.38;68.80
32243;BME280;18731;42.830;24.390;2024-03-22T01:30:48;94624.97;;;3.34;68.78
32243;BME280;18731;42.830;24.390;2024-03-22T01:33:13;94611.66;;;3.20;69.55
32243;BME280;18731;42.830;24.390;2024-03-22T01:35:39;94626.38;;;3.27;69.56
32243;BME280;18731;42.830;24.390;2024-03-22T01:38:05;94625.84;;;3.25;69.23
32243;BME280;18731;42.830;24.390;2024-03-22T01:40:30;94625.28;;;3.28;69.48
32243;BME280;18731;42.830;24.390;2024-03-22T01:42:57;94595.50;;;2.98;70.00
32243;BME280;18731;42.830;24.390;2024-03-22T01:45:23;94624.41;;;3.08;70.07
32243;BME280;18731;42.830;24.390;2024-03-22T01:47:52;94617.06;;;3.05;70.21
32243;BME280;18731;42.830;24.390;2024-03-22T01:50:20;94626.53;;;3.06;69.79
32243;BME280;18731;42.830;24.390;2024-03-22T01:52:46;94628.63;;;3.09;69.71
32243;BME280;18731;42.830;24.390;2024-03-22T01:55:12;94628.41;;;3.06;70.16
32243;BME280;18731;42.830;24.390;2024-03-22T01:57:38;94618.88;;;3.10;69.59
32243;BME280;18731;42.830;24.390;2024-03-22T02:00:04;94637.56;;;3.13;69.97
32243;BME280;18731;42.830;24.390;2024-03-22T02:02:29;94634.38;;;3.16;69.68
32243;BME280;18731;42.830;24.390;2024-03-22T02:04:57;94626.72;;;3.15;69.45
32243;BME280;18731;42.830;24.390;2024-03-22T02:07:22;94619.09;;;3.13;69.39
32243;BME280;18731;42.830;24.390;2024-03-22T02:09:48;94628.06;;;3.12;69.79
32243;BME280;18731;42.830;24.390;2024-03-22T02:12:14;94638.84;;;3.16;70.35
32243;BME280;18731;42.830;24.390;2024-03-22T02:14:41;94643.19;;;3.02;69.58
32243;BME280;18731;42.830;24.390;2024-03-22T02:17:06;94651.38;;;3.00;70.39
32243;BME280;18731;42.830;24.390;2024-03-22T02:19:32;94634.63;;;2.86;70.49
32243;BME280;18731;42.830;24.390;2024-03-22T02:21:57;94641.94;;;2.94;71.14
32243;BME280;18731;42.830;24.390;2024-03-22T02:24:23;94645.31;;;3.00;70.97
32243;BME280;18731;42.830;24.390;2024-03-22T02:26:48;94644.78;;;3.03;70.47
32243;BME280;18731;42.830;24.390;2024-03-22T02:29:14;94651.38;;;3.00;70.76
32243;BME280;18731;42.830;24.390;2024-03-22T02:31:39;94647.22;;;2.94;71.04
32243;BME280;18731;42.830;24.390;2024-03-22T02:34:05;94645.03;;;3.01;70.64
32243;BME280;18731;42.830;24.390;2024-03-22T02:36:30;94650.16;;;2.87;70.88
32243;BME280;18731;42.830;24.390;2024-03-22T02:38:56;94662.56;;;2.87;70.96
32243;BME280;18731;42.830;24.390;2024-03-22T02:41:22;94631.84;;;2.67;71.12
32243;BME280;18731;42.830;24.390;2024-03-22T02:43:47;94660.66;;;2.93;71.00
32243;BME280;18731;42.830;24.390;2024-03-22T02:46:13;94662.78;;;2.90;71.40
32243;BME280;18731;42.830;24.390;2024-03-22T02:48:38;94658.84;;;2.88;70.76
32243;BME280;18731;42.830;24.390;2024-03-22T02:51:04;94664.69;;;2.85;71.15
32243;BME280;18731;42.830;24.390;2024-03-22T02:53:29;94666.81;;;2.83;70.90
32243;BME280;18731;42.830;24.390;2024-03-22T02:55:55;94666.84;;;2.78;71.77
32243;BME280;18731;42.830;24.390;2024-03-22T02:58:20;94651.59;;;2.70;71.50
32243;BME280;18731;42.830;24.390;2024-03-22T03:00:47;94672.13;;;2.73;71.61
32243;BME280;18731;42.830;24.390;2024-03-22T03:03:12;94676.06;;;2.75;71.85
32243;BME280;18731;42.830;24.390;2024-03-22T03:05:38;94676.88;;;2.76;71.60
32243;BME280;18731;42.830;24.390;2024-03-22T03:08:04;94650.84;;;2.59;71.71
32243;BME280;18731;42.830;24.390;2024-03-22T03:10:29;94649.75;;;2.70;71.27
32243;BME280;18731;42.830;24.390;2024-03-22T03:12:55;94682.84;;;2.86;71.14
32243;BME280;18731;42.830;24.390;2024-03-22T03:15:21;94679.94;;;2.88;70.93
32243;BME280;18731;42.830;24.390;2024-03-22T03:17:46;94683.88;;;2.90;71.06
32243;BME280;18731;42.830;24.390;2024-03-22T03:20:12;94680.97;;;2.92;70.58
32243;BME280;18731;42.830;24.390;2024-03-22T03:22:41;94685.72;;;2.90;71.11
32243;BME280;18731;42.830;24.390;2024-03-22T03:25:07;94692.13;;;2.79;70.73
32243;BME280;18731;42.830;24.390;2024-03-22T03:27:33;94681.59;;;2.79;70.53
32243;BME280;18731;42.830;24.390;2024-03-22T03:29:59;94656.88;;;2.70;70.64
32243;BME280;18731;42.830;24.390;2024-03-22T03:32:26;94681.81;;;2.82;70.53
32243;BME280;18731;42.830;24.390;2024-03-22T03:34:51;94691.03;;;2.85;70.42
32243;BME280;18731;42.830;24.390;2024-03-22T03:37:17;94700.03;;;2.79;70.51
32243;BME280;18731;42.830;24.390;2024-03-22T03:39:42;94696.38;;;2.75;70.48
32243;BME280;18731;42.830;24.390;2024-03-22T03:42:09;94684.88;;;2.61;70.93
32243;BME280;18731;42.830;24.390;2024-03-22T03:44:34;94696.38;;;2.75;70.60
32243;BME280;18731;42.830;24.390;2024-03-22T03:47:01;94662.19;;;2.59;70.75
32243;BME280;18731;42.830;24.390;2024-03-22T03:49:27;94694.78;;;2.79;70.50
32243;BME280;18731;42.830;24.390;2024-03-22T03:51:53;94697.72;;;2.72;70.93
32243;BME280;18731;42.830;24.390;2024-03-22T03:54:18;94695.94;;;2.63;70.79
32243;BME280;18731;42.830;24.390;2024-03-22T03:56:44;94703.81;;;2.63;71.13
32243;BME280;18731;42.830;24.390;2024-03-22T03:59:09;94707.53;;;2.62;70.99
32243;BME280;18731;42.830;24.390;2024-03-22T04:01:35;94705.41;;;2.58;71.09
32243;BME280;18731;42.830;24.390;2024-03-22T04:04:01;94707.53;;;2.62;70.73
32243;BME280;18731;42.830;24.390;2024-03-22T04:06:27;94719.13;;;2.61;70.73
32243;BME280;18731;42.830;24.390;2024-03-22T04:08:52;94720.44;;;2.63;70.87
32243;BME280;18731;42.830;24.390;2024-03-22T04:11:18;94720.16;;;2.65;70.81
32243;BME280;18731;42.830;24.390;2024-03-22T04:13:43;94713.31;;;2.64;71.03
32243;BME280;18731;42.830;24.390;2024-03-22T04:16:09;94721.47;;;2.57;71.05
32243;BME280;18731;42.830;24.390;2024-03-22T04:18:34;94725.47;;;2.49;71.51
32243;BME280;18731;42.830;24.390;2024-03-22T04:21:01;94717.34;;;2.41;71.74
32243;BME280;18731;42.830;24.390;2024-03-22T04:23:26;94731.56;;;2.40;71.65
32243;BME280;18731;42.830;24.390;2024-03-22T04:25:57;94728.94;;;2.40;71.95
32243;BME280;18731;42.830;24.390;2024-03-22T04:28:24;94726.56;;;2.43;71.80
32243;BME280;18731;42.830;24.390;2024-03-22T04:33:21;94732.59;;;2.49;71.65
32243;BME280;18731;42.830;24.390;2024-03-22T04:35:47;94711.88;;;2.27;71.19
32243;BME280;18731;42.830;24.390;2024-03-22T04:38:12;94742.31;;;2.53;71.16
32243;BME280;18731;42.830;24.390;2024-03-22T04:40:38;94746.25;;;2.56;71.21
32243;BME280;18731;42.830;24.390;2024-03-22T04:43:04;94744.41;;;2.56;71.43
32243;BME280;18731;42.830;24.390;2024-03-22T04:45:30;94742.06;;;2.50;71.79
32243;BME280;18731;42.830;24.390;2024-03-22T04:47:55;94745.75;;;2.54;71.61
32243;BME280;18731;42.830;24.390;2024-03-22T04:50:21;94742.84;;;2.55;71.76
32243;BME280;18731;42.830;24.390;2024-03-22T04:52:46;94722.34;;;2.42;71.94
32243;BME280;18731;42.830;24.390;2024-03-22T04:55:12;94721.25;;;2.48;71.96
32243;BME280;18731;42.830;24.390;2024-03-22T04:57:37;94744.41;;;2.62;72.37
32243;BME280;18731;42.830;24.390;2024-03-22T05:00:03;94750.75;;;2.55;72.56
32243;BME280;18731;42.830;24.390;2024-03-22T05:02:29;94741.22;;;2.59;72.48
32243;BME280;18731;42.830;24.390;2024-03-22T05:04:54;94746.25;;;2.56;72.37
32243;BME280;18731;42.830;24.390;2024-03-22T05:07:20;94752.81;;;2.69;72.34
32243;BME280;18731;42.830;24.390;2024-03-22T05:09:45;94750.91;;;2.79;72.16
32243;BME280;18731;42.830;24.390;2024-03-22T05:12:11;94754.00;;;2.92;72.44
32243;BME280;18731;42.830;24.390;2024-03-22T05:14:36;94752.59;;;3.04;71.72
32243;BME280;18731;42.830;24.390;2024-03-22T05:17:02;94727.84;;;3.00;71.24
32243;BME280;18731;42.830;24.390;2024-03-22T05:19:27;94758.84;;;3.18;71.33
32243;BME280;18731;42.830;24.390;2024-03-22T05:21:53;94745.88;;;3.22;71.09
32243;BME280;18731;42.830;24.390;2024-03-22T05:24:18;94758.22;;;3.32;70.70
32243;BME280;18731;42.830;24.390;2024-03-22T05:26:44;94751.75;;;3.48;70.51
32243;BME280;18731;42.830;24.390;2024-03-22T05:29:09;94755.28;;;3.67;70.38
32243;BME280;18731;42.830;24.390;2024-03-22T05:31:46;94759.91;;;3.80;69.61
32243;BME280;18731;42.830;24.390;2024-03-22T05:34:13;94756.34;;;3.95;69.12
32243;BME280;18731;42.830;24.390;2024-03-22T05:36:40;94755.28;;;3.96;69.37
32243;BME280;18731;42.830;24.390;2024-03-22T05:39:05;94754.22;;;4.21;68.59
32243;BME280;18731;42.830;24.390;2024-03-22T05:41:31;94765.53;;;4.50;67.46
32243;BME280;18731;42.830;24.390;2024-03-22T05:43:56;94748.81;;;4.55;67.22
32243;BME280;18731;42.830;24.390;2024-03-22T05:46:22;94763.56;;;4.80;66.24
32243;BME280;18731;42.830;24.390;2024-03-22T05:48:47;94775.44;;;4.82;65.47
32243;BME280;18731;42.830;24.390;2024-03-22T05:51:16;94771.44;;;4.85;65.72
32243;BME280;18731;42.830;24.390;2024-03-22T05:53:41;94772.66;;;4.93;65.77
32243;BME280;18731;42.830;24.390;2024-03-22T05:56:07;94776.31;;;4.97;65.26
32243;BME280;18731;42.830;24.390;2024-03-22T05:58:33;94779.03;;;4.92;65.72
32243;BME280;18731;42.830;24.390;2024-03-22T06:00:58;94782.25;;;5.07;65.25
32243;BME280;18731;42.830;24.390;2024-03-22T06:03:24;94783.34;;;5.25;64.67
32243;BME280;18731;42.830;24.390;2024-03-22T06:05:49;94749.25;;;5.24;63.79
32243;BME280;18731;42.830;24.390;2024-03-22T06:08:15;94784.47;;;5.57;63.41
32243;BME280;18731;42.830;24.390;2024-03-22T06:10:45;94763.16;;;5.80;63.36
32243;BME280;18731;42.830;24.390;2024-03-22T06:13:10;94781.09;;;6.02;63.07
32243;BME280;18731;42.830;24.390;2024-03-22T06:15:36;94781.13;;;6.16;62.63
32243;BME280;18731;42.830;24.390;2024-03-22T06:18:01;94784.31;;;6.45;62.22
32243;BME280;18731;42.830;24.390;2024-03-22T06:20:27;94768.59;;;6.63;61.89
32243;BME280;18731;42.830;24.390;2024-03-22T06:22:52;94788.00;;;6.99;61.29
32243;BME280;18731;42.830;24.390;2024-03-22T06:25:18;94780.69;;;7.19;59.73
32243;BME280;18731;42.830;24.390;2024-03-22T06:27:43;94771.81;;;7.23;59.83
32243;BME280;18731;42.830;24.390;2024-03-22T06:30:09;94779.41;;;7.52;58.67
32243;BME280;18731;42.830;24.390;2024-03-22T06:32:35;94747.28;;;7.62;58.67
32243;BME280;18731;42.830;24.390;2024-03-22T06:35:01;94761.03;;;8.09;58.13
32243;BME280;18731;42.830;24.390;2024-03-22T06:37:26;94770.91;;;8.40;57.10
32243;BME280;18731;42.830;24.390;2024-03-22T06:39:51;94766.28;;;8.54;56.28
32243;BME280;18731;42.830;24.390;2024-03-22T06:42:17;94770.91;;;8.79;54.43
32243;BME280;18731;42.830;24.390;2024-03-22T06:44:42;94774.22;;;8.93;50.18
32243;BME280;18731;42.830;24.390;2024-03-22T06:47:08;94770.53;;;9.29;50.08
32243;BME280;18731;42.830;24.390;2024-03-22T06:49:34;94742.47;;;9.31;48.87
32243;BME280;18731;42.830;24.390;2024-03-22T06:51:59;94778.22;;;9.65;46.30
32243;BME280;18731;42.830;24.390;2024-03-22T06:54:25;94768.81;;;9.59;45.77
32243;BME280;18731;42.830;24.390;2024-03-22T06:56:52;94771.47;;;9.67;49.80
32243;BME280;18731;42.830;24.390;2024-03-22T06:59:17;94766.59;;;9.87;45.96
32243;BME280;18731;42.830;24.390;2024-03-22T07:01:43;94771.88;;;10.13;44.69
32243;BME280;18731;42.830;24.390;2024-03-22T07:04:08;94774.06;;;10.19;43.59
32243;BME280;18731;42.830;24.390;2024-03-22T07:06:34;94776.69;;;10.37;44.41
32243;BME280;18731;42.830;24.390;2024-03-22T07:09:00;94777.97;;;10.30;42.22
32243;BME280;18731;42.830;24.390;2024-03-22T07:11:25;94776.22;;;10.43;41.93
32243;BME280;18731;42.830;24.390;2024-03-22T07:13:51;94771.63;;;10.61;42.75
32243;BME280;18731;42.830;24.390;2024-03-22T07:16:16;94769.31;;;10.80;42.34
32243;BME280;18731;42.830;24.390;2024-03-22T07:18:42;94775.06;;;11.20;41.14
32243;BME280;18731;42.830;24.390;2024-03-22T07:21:07;94755.50;;;11.08;42.35
32243;BME280;18731;42.830;24.390;2024-03-22T07:23:33;94767.84;;;11.63;40.55
32243;BME280;18731;42.830;24.390;2024-03-22T07:25:58;94772.44;;;11.83;39.49
32243;BME280;18731;42.830;24.390;2024-03-22T07:28:24;94776.66;;;12.17;39.93
32243;BME280;18731;42.830;24.390;2024-03-22T07:30:50;94743.66;;;12.13;38.47
32243;BME280;18731;42.830;24.390;2024-03-22T07:33:15;94763.97;;;12.26;38.34
32243;BME280;18731;42.830;24.390;2024-03-22T07:35:43;94759.28;;;12.23;38.15
32243;BME280;18731;42.830;24.390;2024-03-22T07:38:10;94764.38;;;12.61;39.53
32243;BME280;18731;42.830;24.390;2024-03-22T07:40:35;94767.28;;;12.80;36.82
32243;BME280;18731;42.830;24.390;2024-03-22T07:43:01;94760.06;;;13.05;37.30
32243;BME280;18731;42.830;24.390;2024-03-22T07:45:34;94761.03;;;13.37;38.92
32243;BME280;18731;42.830;24.390;2024-03-22T07:48:00;94766.47;;;13.53;36.58
32243;BME280;18731;42.830;24.390;2024-03-22T07:50:27;94760.66;;;13.91;36.71
32243;BME280;18731;42.830;24.390;2024-03-22T07:52:53;94763.66;;;14.18;36.64
32243;BME280;18731;42.830;24.390;2024-03-22T07:55:19;94757.59;;;14.21;34.97
32243;BME280;18731;42.830;24.390;2024-03-22T07:57:44;94749.56;;;13.93;35.09
32243;BME280;18731;42.830;24.390;2024-03-22T08:00:10;94758.88;;;14.11;35.29
32243;BME280;18731;42.830;24.390;2024-03-22T08:02:35;94752.16;;;13.89;35.45
32243;BME280;18731;42.830;24.390;2024-03-22T08:05:01;94756.16;;;13.67;34.86
32243;BME280;18731;42.830;24.390;2024-03-22T08:07:27;94756.22;;;13.83;36.00
32243;BME280;18731;42.830;24.390;2024-03-22T08:09:53;94757.56;;;13.37;35.51
32243;BME280;18731;42.830;24.390;2024-03-22T08:12:21;94758.25;;;13.34;37.31
32243;BME280;18731;42.830;24.390;2024-03-22T08:14:46;94760.59;;;13.35;38.45
32243;BME280;18731;42.830;24.390;2024-03-22T08:17:12;94768.75;;;13.27;36.10
32243;BME280;18731;42.830;24.390;2024-03-22T08:19:38;94771.75;;;13.49;37.41
32243;BME280;18731;42.830;24.390;2024-03-22T08:22:04;94765.91;;;13.60;37.48
32243;BME280;18731;42.830;24.390;2024-03-22T08:24:29;94756.25;;;13.99;35.23
32243;BME280;18731;42.830;24.390;2024-03-22T08:26:55;94766.59;;;14.12;34.76
32243;BME280;18731;42.830;24.390;2024-03-22T08:29:21;94770.28;;;13.52;35.16
32243;BME280;18731;42.830;24.390;2024-03-22T08:31:47;94768.63;;;13.35;35.34
32243;BME280;18731;42.830;24.390;2024-03-22T08:34:12;94759.56;;;12.91;36.36
32243;BME280;18731;42.830;24.390;2024-03-22T08:36:38;94742.06;;;13.30;37.34
32243;BME280;18731;42.830;24.390;2024-03-22T08:39:04;94756.28;;;13.59;37.10
32243;BME280;18731;42.830;24.390;2024-03-22T08:41:30;94758.63;;;13.60;36.39
32243;BME280;18731;42.830;24.390;2024-03-22T08:43:56;94751.13;;;13.66;35.68
32243;BME280;18731;42.830;24.390;2024-03-22T08:46:22;94750.94;;;13.87;36.87
32243;BME280;18731;42.830;24.390;2024-03-22T08:48:50;94738.69;;;14.01;36.02
32243;BME280;18731;42.830;24.390;2024-03-22T08:51:15;94763.16;;;14.28;35.64
32243;BME280;18731;42.830;24.390;2024-03-22T08:53:41;94765.00;;;14.39;36.28
32243;BME280;18731;42.830;24.390;2024-03-22T08:56:07;94749.88;;;14.03;34.26
32243;BME280;18731;42.830;24.390;2024-03-22T08:58:33;94737.06;;;13.57;35.01
32243;BME280;18731;42.830;24.390;2024-03-22T09:00:58;94754.84;;;13.89;35.93
32243;BME280;18731;42.830;24.390;2024-03-22T09:03:24;94762.31;;;13.68;35.98
32243;BME280;18731;42.830;24.390;2024-03-22T09:05:52;94758.16;;;13.30;35.15
32243;BME280;18731;42.830;24.390;2024-03-22T09:08:19;94760.84;;;13.18;35.99
32243;BME280;18731;42.830;24.390;2024-03-22T09:10:47;94748.44;;;13.01;36.03
32243;BME280;18731;42.830;24.390;2024-03-22T09:13:12;94758.56;;;12.71;36.57
32243;BME280;18731;42.830;24.390;2024-03-22T09:15:38;94759.69;;;12.70;37.38
32243;BME280;18731;42.830;24.390;2024-03-22T09:18:04;94742.38;;;12.55;37.89
32243;BME280;18731;42.830;24.390;2024-03-22T09:20:30;94755.00;;;12.92;38.00
32243;BME280;18731;42.830;24.390;2024-03-22T09:22:55;94757.47;;;12.84;40.38
32243;BME280;18731;42.830;24.390;2024-03-22T09:25:23;94721.63;;;12.65;38.27
32243;BME280;18731;42.830;24.390;2024-03-22T09:27:49;94742.72;;;12.78;37.47
32243;BME280;18731;42.830;24.390;2024-03-22T09:30:15;94745.41;;;12.91;37.42
32243;BME280;18731;42.830;24.390;2024-03-22T09:32:41;94750.53;;;12.83;37.64
32243;BME280;18731;42.830;24.390;2024-03-22T09:35:08;94735.69;;;12.98;37.14
32243;BME280;18731;42.830;24.390;2024-03-22T09:37:34;94739.03;;;12.95;37.22
32243;BME280;18731;42.830;24.390;2024-03-22T09:39:59;94731.53;;;12.40;37.57
32243;BME280;18731;42.830;24.390;2024-03-22T09:42:25;94734.03;;;12.57;36.86
32243;BME280;18731;42.830;24.390;2024-03-22T09:44:51;94736.34;;;12.95;36.90
32243;BME280;18731;42.830;24.390;2024-03-22T09:47:18;94719.84;;;12.56;36.43
32243;BME280;18731;42.830;24.390;2024-03-22T09:49:44;94728.41;;;12.38;37.02
32243;BME280;18731;42.830;24.390;2024-03-22T09:52:15;94732.69;;;12.87;37.65
32243;BME280;18731;42.830;24.390;2024-03-22T09:54:44;94725.53;;;13.16;36.50
32243;BME280;18731;42.830;24.390;2024-03-22T09:57:16;94719.59;;;12.98;36.33
32243;BME280;18731;42.830;24.390;2024-03-22T09:59:43;94726.88;;;13.34;37.86
32243;BME280;18731;42.830;24.390;2024-03-22T10:02:11;94726.75;;;13.31;35.07
32243;BME280;18731;42.830;24.390;2024-03-22T10:04:38;94711.47;;;13.07;35.67
32243;BME280;18731;42.830;24.390;2024-03-22T10:07:04;94712.94;;;13.57;34.99
32243;BME280;18731;42.830;24.390;2024-03-22T10:09:30;94710.06;;;14.21;35.58
32243;BME280;18731;42.830;24.390;2024-03-22T10:11:56;94707.34;;;14.65;35.64
32243;BME280;18731;42.830;24.390;2024-03-22T10:14:22;94710.16;;;14.88;32.74
32243;BME280;18731;42.830;24.390;2024-03-22T10:16:51;94723.16;;;14.86;34.79
32243;BME280;18731;42.830;24.390;2024-03-22T10:19:21;94726.47;;;15.30;34.21
32243;BME280;18731;42.830;24.390;2024-03-22T10:21:48;94714.94;;;16.03;35.20
32243;BME280;18731;42.830;24.390;2024-03-22T10:24:24;94710.47;;;15.91;31.81
32243;BME280;18731;42.830;24.390;2024-03-22T10:26:50;94685.84;;;14.65;32.80
32243;BME280;18731;42.830;24.390;2024-03-22T10:29:15;94697.44;;;14.37;33.16
32243;BME280;18731;42.830;24.390;2024-03-22T10:31:42;94679.13;;;14.90;33.90
32243;BME280;18731;42.830;24.390;2024-03-22T10:34:08;94678.69;;;15.42;32.95
32243;BME280;18731;42.830;24.390;2024-03-22T10:36:34;94693.75;;;15.82;31.16
32243;BME280;18731;42.830;24.390;2024-03-22T10:39:00;94696.31;;;15.94;32.93
32243;BME280;18731;42.830;24.390;2024-03-22T10:41:27;94687.47;;;15.74;31.19
32243;BME280;18731;42.830;24.390;2024-03-22T10:43:52;94671.63;;;15.54;31.62
32243;BME280;18731;42.830;24.390;2024-03-22T10:46:20;94696.75;;;15.42;32.01
32243;BME280;18731;42.830;24.390;2024-03-22T10:48:46;94678.94;;;14.99;31.64
32243;BME280;18731;42.830;24.390;2024-03-22T10:51:13;94686.50;;;14.30;32.64
32243;BME280;18731;42.830;24.390;2024-03-22T10:53:41;94669.00;;;13.33;34.26
32243;BME280;18731;42.830;24.390;2024-03-22T10:56:08;94687.03;;;12.96;37.58
32243;BME280;18731;42.830;24.390;2024-03-22T10:58:39;94680.88;;;12.96;36.70
32243;BME280;18731;42.830;24.390;2024-03-22T11:01:05;94682.88;;;12.99;35.33
32243;BME280;18731;42.830;24.390;2024-03-22T11:03:30;94676.66;;;13.07;36.78
32243;BME280;18731;42.830;24.390;2024-03-22T11:05:56;94682.00;;;12.95;36.47
32243;BME280;18731;42.830;24.390;2024-03-22T11:08:31;94654.03;;;13.32;34.96
32243;BME280;18731;42.830;24.390;2024-03-22T11:10:57;94667.88;;;13.62;34.88
32243;BME280;18731;42.830;24.390;2024-03-22T11:13:23;94668.09;;;14.44;34.71
32243;BME280;18731;42.830;24.390;2024-03-22T11:15:49;94667.84;;;14.50;33.88
32243;BME280;18731;42.830;24.390;2024-03-22T11:18:16;94664.84;;;14.07;31.93
32243;BME280;18731;42.830;24.390;2024-03-22T11:20:44;94644.84;;;13.89;33.17
32243;BME280;18731;42.830;24.390;2024-03-22T11:23:13;94675.78;;;14.14;34.13
32243;BME280;18731;42.830;24.390;2024-03-22T11:25:39;94664.94;;;13.95;32.69
32243;BME280;18731;42.830;24.390;2024-03-22T11:28:05;94666.38;;;13.93;32.62
32243;BME280;18731;42.830;24.390;2024-03-22T11:30:33;94665.25;;;13.78;33.06
32243;BME280;18731;42.830;24.390;2024-03-22T11:33:02;94661.56;;;13.55;33.17
32243;BME280;18731;42.830;24.390;2024-03-22T11:35:28;94659.13;;;13.49;33.71
32243;BME280;18731;42.830;24.390;2024-03-22T11:37:53;94638.97;;;13.56;33.82
32243;BME280;18731;42.830;24.390;2024-03-22T11:40:19;94655.38;;;13.38;33.81
32243;BME280;18731;42.830;24.390;2024-03-22T11:42:50;94655.03;;;13.40;33.90
32243;BME280;18731;42.830;24.390;2024-03-22T11:45:17;94652.69;;;13.38;34.17
32243;BME280;18731;42.830;24.390;2024-03-22T11:47:46;94648.88;;;13.39;34.34
32243;BME280;18731;42.830;24.390;2024-03-22T11:50:12;94642.53;;;13.32;34.50
32243;BME280;18731;42.830;24.390;2024-03-22T11:52:40;94641.66;;;13.28;35.07
32243;BME280;18731;42.830;24.390;2024-03-22T11:55:06;94638.22;;;13.71;35.25
32243;BME280;18731;42.830;24.390;2024-03-22T11:57:32;94640.19;;;14.02;33.89
32243;BME280;18731;42.830;24.390;2024-03-22T12:00:02;94634.19;;;14.08;34.27
32243;BME280;18731;42.830;24.390;2024-03-22T12:02:28;94632.13;;;14.18;34.45
32243;BME280;18731;42.830;24.390;2024-03-22T12:04:56;94637.50;;;14.18;33.70
32243;BME280;18731;42.830;24.390;2024-03-22T12:07:23;94617.66;;;14.06;34.72
32243;BME280;18731;42.830;24.390;2024-03-22T12:09:49;94627.34;;;13.95;35.13
32243;BME280;18731;42.830;24.390;2024-03-22T12:12:14;94634.88;;;13.90;33.80
32243;BME280;18731;42.830;24.390;2024-03-22T12:14:40;94632.88;;;13.71;34.01
32243;BME280;18731;42.830;24.390;2024-03-22T12:17:07;94625.97;;;13.86;35.20
32243;BME280;18731;42.830;24.390;2024-03-22T12:19:33;94622.16;;;13.87;34.67
32243;BME280;18731;42.830;24.390;2024-03-22T12:21:59;94620.31;;;13.75;33.92
32243;BME280;18731;42.830;24.390;2024-03-22T12:24:25;94596.16;;;13.59;34.17
32243;BME280;18731;42.830;24.390;2024-03-22T12:26:53;94623.94;;;13.67;33.88
32243;BME280;18731;42.830;24.390;2024-03-22T12:29:19;94597.78;;;13.48;33.60
32243;BME280;18731;42.830;24.390;2024-03-22T12:31:44;94617.47;;;13.68;33.67
32243;BME280;18731;42.830;24.390;2024-03-22T12:34:10;94611.81;;;13.57;33.85
32243;BME280;18731;42.830;24.390;2024-03-22T12:36:36;94595.00;;;13.44;33.16
32243;BME280;18731;42.830;24.390;2024-03-22T12:39:01;94609.19;;;13.45;34.31
32243;BME280;18731;42.830;24.390;2024-03-22T12:41:29;94602.75;;;13.62;33.89
32243;BME280;18731;42.830;24.390;2024-03-22T12:43:55;94589.94;;;13.71;33.89
32243;BME280;18731;42.830;24.390;2024-03-22T12:46:21;94577.47;;;13.63;32.94
32243;BME280;18731;42.830;24.390;2024-03-22T12:48:46;94581.47;;;13.84;33.47
32243;BME280;18731;42.830;24.390;2024-03-22T12:51:12;94591.69;;;14.10;33.05